Capitol Logistics 3252


MYNN
Lynden Pindling International Airport
Nassau, BS
KMIA
Miami International Airport
Miami, US

Activity Log

Date Flight Route Aircraft Duration
11/05/2019 CPX652 ZQA FOWEE9 SF34 0h 59m
10/12/2019 CPX652 ZQA FOWEE9 SF34 1h 14m
09/14/2019 CPX652 ZQA FOWEE9 SF34 0h 47m
09/12/2019 CPX652 ZQA FOWEE9 SF34 0h 46m
09/04/2019 CPX652 ZQA FOWEE9 SF34 0h 43m
08/23/2019 CPX652 ZQA FOWEE9 SF34 0h 44m
06/27/2019 CPX652 ZQA FOWEE9 SF34 0h 43m
06/26/2019 CPX652 ZQA FOWEE9 SF34 0h 44m

Route Details

Aircraft Information
Primary: Saab 340AF
Backup: Not Available
Route Data
Distance: 160nm
Sched. Duration: 1h 10m
Avg. Duration: 0h 55m (-55m)
Times Flown: 8
Recm'd Route: ZQA FOWEE9
Planned Altitude: 14,000ft
Origin Wx: MYNN 282100Z 30012KT 9999 BKN025 BKN040 20/12 A3015
Dest. Wx: KMIA 282053Z 33010G16KT 290V360 10SM CLR 20/04 A3018 RMK AO2 SLP221 T02000039 56014
Notes:

Financial History
Total Freight: 40,800lbs
Average Load: 5,100lbs/flt
Fuel Used: 6,338lbs
Avg. Fuel Used: 792lbs/flt
Fuel Expense: $6,148
Avg. Fuel Expense: $768
Avg. Fuel Cost: $0.97/lbs
Total Gross Income: $45,696
Pilot Pay: $1,752
Total Expenses: $5,351
Total Revenue: $32,600
Average Revenue: $5,712.00